Time;durP1;ratioP1;P1;durP2;ratioP2;P2;SDS_P1;SDS_P2;PMS_P1;PMS_P2;Temp;Humidity;BMP_temperature;BMP_pressure;BME280_temperature;BME280_humidity;BME280_pressure;Samples;Min_cycle;Max_cycle;Signal;HPM_P1;HPM_P2
2022/04/17 00:01:24;;;;;;;10.00;6.55;;;;;;;10.60;39.65;103024.19;5038670;28;20072;-51
2022/04/17 00:03:49;;;;;;;11.82;7.47;;;;;;;10.60;39.92;103025.88;5041843;28;20490;-49
2022/04/17 00:06:15;;;;;;;10.48;7.25;;;;;;;10.57;39.52;103020.53;5044830;28;20529;-49
2022/04/17 00:08:40;;;;;;;11.82;7.00;;;;;;;10.54;39.28;103013.50;5042947;28;20467;-48
2022/04/17 00:11:05;;;;;;;14.20;7.25;;;;;;;10.52;39.23;103019.38;5042116;28;20044;-47
2022/04/17 00:13:31;;;;;;;11.90;6.70;;;;;;;10.56;38.95;103018.78;5035837;28;20055;-46
2022/04/17 00:15:56;;;;;;;9.88;6.60;;;;;;;10.52;39.62;103017.69;5040185;28;20846;-47
2022/04/17 00:18:22;;;;;;;11.85;7.03;;;;;;;10.52;39.07;103020.25;5043999;28;20544;-47
2022/04/17 00:20:47;;;;;;;12.38;7.35;;;;;;;10.45;39.87;103016.41;5041729;28;20037;-48
2022/04/17 00:23:12;;;;;;;12.88;7.20;;;;;;;10.46;39.46;103020.75;5042203;28;20029;-49
2022/04/17 00:25:38;;;;;;;12.40;7.65;;;;;;;10.40;39.47;103022.94;5040298;28;20051;-47
2022/04/17 00:28:04;;;;;;;9.30;6.60;;;;;;;10.37;39.20;103017.59;5044464;28;20052;-46
2022/04/17 00:30:30;;;;;;;11.30;7.25;;;;;;;10.35;39.38;103015.72;5043611;28;20066;-51
2022/04/17 00:32:55;;;;;;;10.43;7.35;;;;;;;10.32;40.07;103026.72;5038083;28;20021;-47
2022/04/17 00:35:20;;;;;;;12.05;7.50;;;;;;;10.28;39.85;103014.44;5047728;28;20040;-48
2022/04/17 00:37:46;;;;;;;11.82;7.30;;;;;;;10.30;39.81;103019.69;5040582;28;20485;-47
2022/04/17 00:40:12;;;;;;;10.50;7.20;;;;;;;10.27;39.58;103017.81;5044679;28;20067;-45
2022/04/17 00:42:40;;;;;;;10.13;6.82;;;;;;;10.24;40.45;103011.56;5040884;28;20056;-49
2022/04/17 00:45:07;;;;;;;12.77;7.45;;;;;;;10.27;39.46;103009.22;5043593;28;20067;-47
2022/04/17 00:47:32;;;;;;;12.90;7.70;;;;;;;10.21;40.34;103017.41;5043464;28;20036;-46
2022/04/17 00:49:57;;;;;;;12.98;7.45;;;;;;;10.18;40.05;103012.03;5047738;28;20028;-46
2022/04/17 00:52:23;;;;;;;13.88;7.43;;;;;;;10.19;40.60;103008.66;5049217;28;20481;-47
2022/04/17 00:54:49;;;;;;;14.63;7.80;;;;;;;10.12;40.38;103016.78;5042514;28;20567;-46
2022/04/17 00:57:16;;;;;;;12.70;7.65;;;;;;;10.09;40.90;103009.78;5043218;28;20032;-46
2022/04/17 00:59:43;;;;;;;11.23;7.68;;;;;;;10.09;41.26;103014.03;5043609;28;20090;-45
2022/04/17 01:02:14;;;;;;;12.15;8.00;;;;;;;10.02;40.95;103015.34;5046506;28;20029;-44
2022/04/17 01:04:39;;;;;;;12.35;7.53;;;;;;;9.98;40.41;103008.19;5044274;28;20041;-47
2022/04/17 01:07:05;;;;;;;13.43;7.80;;;;;;;10.02;40.05;103001.59;5046643;28;20085;-46
2022/04/17 01:09:31;;;;;;;10.85;6.80;;;;;;;9.94;40.21;103007.09;5045962;28;20028;-44
2022/04/17 01:11:57;;;;;;;12.73;6.97;;;;;;;9.92;40.14;103011.25;5043673;28;20025;-44
2022/04/17 01:14:27;;;;;;;13.95;7.28;;;;;;;9.87;40.48;103006.63;5046489;28;20045;-47
2022/04/17 01:16:53;;;;;;;11.63;7.68;;;;;;;9.85;40.77;103015.91;5045425;28;20385;-45
2022/04/17 01:19:18;;;;;;;9.90;6.78;;;;;;;9.78;41.32;103014.63;5041406;28;20025;-48
2022/04/17 01:21:46;;;;;;;10.88;7.00;;;;;;;9.73;41.08;103015.09;5048122;28;20049;-47
2022/04/17 01:27:00;;;;;;;10.55;6.82;;;;;;;9.77;40.41;103014.50;5047061;28;20047;-49
2022/04/17 01:29:26;;;;;;;12.30;6.65;;;;;;;9.73;41.10;103017.69;5042832;28;20028;-49
2022/04/17 01:31:53;;;;;;;10.45;6.70;;;;;;;9.73;41.48;103016.00;5045797;28;20110;-45
2022/04/17 01:34:20;;;;;;;10.35;6.93;;;;;;;9.68;41.14;103009.66;5045300;28;20751;-46
2022/04/17 01:36:47;;;;;;;9.18;6.68;;;;;;;9.60;40.89;103015.97;5041159;28;20068;-45
2022/04/17 01:39:13;;;;;;;9.95;6.60;;;;;;;9.58;40.88;103013.28;5042740;28;20086;-49
2022/04/17 01:41:39;;;;;;;10.57;6.22;;;;;;;9.59;41.27;103015.09;5042121;28;20043;-50
2022/04/17 01:44:06;;;;;;;8.32;5.93;;;;;;;9.56;40.96;103012.31;5043673;28;20144;-45
2022/04/17 01:46:31;;;;;;;11.32;6.65;;;;;;;9.58;41.29;103013.28;5048702;28;20072;-46
2022/04/17 01:48:56;;;;;;;10.30;6.30;;;;;;;9.49;41.47;103017.84;5043780;28;20060;-47
2022/04/17 01:51:22;;;;;;;7.70;6.15;;;;;;;9.48;41.60;103008.34;5047080;28;20063;-50
2022/04/17 01:53:48;;;;;;;9.60;6.15;;;;;;;9.49;41.98;103009.25;5043158;28;20052;-46
2022/04/17 01:56:13;;;;;;;10.70;6.20;;;;;;;9.48;41.20;103005.78;5044925;28;20114;-45
2022/04/17 01:58:38;;;;;;;8.85;5.75;;;;;;;9.46;41.15;103004.78;5044310;28;20040;-45
2022/04/17 02:01:05;;;;;;;10.02;5.63;;;;;;;9.42;41.46;103007.06;5047392;28;20469;-45
2022/04/17 02:03:30;;;;;;;9.45;6.18;;;;;;;9.46;41.76;103003.88;5049013;28;20037;-44
2022/04/17 02:05:55;;;;;;;8.57;5.75;;;;;;;9.38;42.05;103005.94;5047110;28;20051;-45
2022/04/17 02:08:21;;;;;;;9.32;5.82;;;;;;;9.43;41.20;103002.00;5048077;28;20035;-46
2022/04/17 02:10:46;;;;;;;8.15;5.40;;;;;;;9.38;41.45;103001.69;5047440;28;20033;-45
2022/04/17 02:13:12;;;;;;;9.85;5.65;;;;;;;9.28;41.25;103000.97;5045229;28;20029;-48
2022/04/17 02:15:37;;;;;;;8.38;5.70;;;;;;;9.31;41.02;103003.75;5047262;28;20036;-47
2022/04/17 02:18:02;;;;;;;9.20;5.40;;;;;;;9.27;41.83;103004.34;5046836;28;20061;-49
2022/04/17 02:20:28;;;;;;;9.05;5.80;;;;;;;9.18;42.17;103001.16;5047535;28;20041;-46
2022/04/17 02:22:53;;;;;;;7.22;5.45;;;;;;;9.20;42.37;102991.88;5048067;28;20035;-44
2022/04/17 02:25:19;;;;;;;9.68;5.70;;;;;;;9.11;42.32;102990.47;5047489;28;20028;-44
2022/04/17 02:27:44;;;;;;;9.02;5.70;;;;;;;9.12;42.43;102993.94;5049666;28;20040;-46
2022/04/17 02:30:10;;;;;;;7.97;5.55;;;;;;;9.09;42.53;102993.72;5050506;28;20068;-47
2022/04/17 02:32:35;;;;;;;7.60;5.38;;;;;;;9.06;42.42;102985.81;5051213;28;20461;-45
2022/04/17 02:35:00;;;;;;;8.23;5.35;;;;;;;9.05;42.10;102987.50;5047308;28;20032;-48
2022/04/17 02:37:26;;;;;;;8.02;5.75;;;;;;;9.04;42.00;102988.28;5051198;28;20116;-47
2022/04/17 02:39:52;;;;;;;6.85;5.25;;;;;;;8.99;42.12;102988.75;5045225;28;20037;-49
2022/04/17 02:42:17;;;;;;;7.57;4.97;;;;;;;9.02;42.98;102996.66;5045392;28;20029;-48
2022/04/17 02:44:43;;;;;;;7.57;5.25;;;;;;;9.02;42.39;102983.81;5052161;28;20459;-46
2022/04/17 02:49:52;;;;;;;8.68;5.03;;;;;;;8.98;41.97;102985.31;5045467;28;20051;-45
2022/04/17 02:52:18;;;;;;;6.47;5.07;;;;;;;8.88;42.54;102990.59;5049379;28;20400;-45
2022/04/17 02:54:43;;;;;;;7.88;4.88;;;;;;;8.90;42.60;102991.56;5045234;28;20061;-47
2022/04/17 02:57:08;;;;;;;7.25;4.90;;;;;;;8.91;42.72;102987.31;5030152;28;20140;-45
2022/04/17 02:59:34;;;;;;;7.35;5.05;;;;;;;8.85;43.04;102982.66;5046481;28;20087;-44
2022/04/17 03:07:29;;;;;;;7.45;4.85;;;;;;;8.74;42.58;102968.22;5045537;28;20056;-45
2022/04/17 03:09:54;;;;;;;8.57;5.47;;;;;;;8.69;42.71;102967.91;5047824;28;20182;-45
2022/04/17 03:12:19;;;;;;;9.57;5.88;;;;;;;8.67;43.35;102971.13;5045707;28;20505;-46
2022/04/17 03:14:46;;;;;;;7.90;5.45;;;;;;;8.61;43.11;102966.47;5048907;28;20051;-44
2022/04/17 03:17:12;;;;;;;8.68;5.32;;;;;;;8.55;43.16;102969.53;5043367;28;20039;-44
2022/04/17 03:19:37;;;;;;;10.18;5.50;;;;;;;8.55;43.29;102969.53;5047757;28;20397;-44
2022/04/17 03:22:03;;;;;;;7.68;5.40;;;;;;;8.51;42.97;102974.31;5046695;28;20051;-46
2022/04/17 03:24:28;;;;;;;8.73;5.78;;;;;;;8.55;43.07;102969.53;5043856;28;20037;-45
2022/04/17 03:26:53;;;;;;;7.28;5.43;;;;;;;8.47;43.44;102962.94;5044876;28;20037;-44
2022/04/17 03:29:19;;;;;;;7.93;5.38;;;;;;;8.49;43.59;102966.53;5046464;28;20510;-47
2022/04/17 03:31:44;;;;;;;8.80;5.43;;;;;;;8.41;43.93;102957.38;5047845;28;20033;-49
2022/04/17 03:34:10;;;;;;;8.10;5.68;;;;;;;8.44;44.12;102959.28;5042133;28;20044;-47
2022/04/17 03:36:39;;;;;;;10.48;5.60;;;;;;;8.45;43.76;102961.06;5046438;28;20430;-45
2022/04/17 03:39:05;;;;;;;8.13;5.55;;;;;;;8.48;43.72;102959.59;5048680;28;20639;-46
2022/04/17 03:41:31;;;;;;;9.32;5.68;;;;;;;8.43;43.17;102960.94;5041653;28;20028;-44
2022/04/17 03:43:56;;;;;;;8.50;5.57;;;;;;;8.36;44.36;102963.88;5041099;28;20029;-44
2022/04/17 03:46:22;;;;;;;10.05;5.97;;;;;;;8.31;43.30;102963.53;5043156;28;20720;-44
2022/04/17 03:48:47;;;;;;;9.48;5.60;;;;;;;8.26;44.39;102961.41;5042238;28;20033;-44
2022/04/17 03:51:13;;;;;;;10.80;6.05;;;;;;;8.30;44.47;102953.13;5048370;28;20082;-45
2022/04/17 03:53:39;;;;;;;8.30;5.90;;;;;;;8.31;44.87;102960.03;5042683;28;20094;-47
2022/04/17 03:56:04;;;;;;;9.57;5.50;;;;;;;8.27;45.01;102953.84;5044277;28;20033;-47
2022/04/17 03:58:30;;;;;;;8.68;5.70;;;;;;;8.22;44.78;102956.84;5044581;28;20036;-45
2022/04/17 04:00:55;;;;;;;11.95;5.88;;;;;;;8.20;45.12;102958.41;5048179;28;20060;-47
2022/04/17 04:03:21;;;;;;;10.25;6.18;;;;;;;8.21;44.79;102957.63;5044522;28;20030;-48
2022/04/17 04:05:46;;;;;;;9.20;6.30;;;;;;;8.13;44.99;102948.50;5047710;28;20107;-46
2022/04/17 04:08:12;;;;;;;11.30;6.57;;;;;;;8.10;44.86;102941.50;5049129;28;20135;-48
2022/04/17 04:10:37;;;;;;;9.90;6.07;;;;;;;8.12;45.40;102951.84;5042535;28;20029;-46
2022/04/17 04:13:04;;;;;;;9.18;5.78;;;;;;;8.13;45.96;102951.06;5046787;28;20033;-47
2022/04/17 04:15:29;;;;;;;9.60;6.57;;;;;;;8.07;45.74;102939.63;5046520;28;20132;-47
2022/04/17 04:17:55;;;;;;;12.10;6.10;;;;;;;8.05;45.87;102940.28;5046679;28;20104;-47
2022/04/17 04:20:20;;;;;;;8.90;6.05;;;;;;;7.97;45.64;102926.91;5046895;28;20759;-48
2022/04/17 04:22:45;;;;;;;10.70;6.35;;;;;;;7.98;45.82;102931.25;5045767;28;20028;-47
2022/04/17 04:25:11;;;;;;;10.48;6.10;;;;;;;7.94;45.60;102934.38;5044580;28;20405;-47
2022/04/17 04:30:20;;;;;;;9.63;6.18;;;;;;;7.93;46.06;102931.72;5043891;28;20056;-50
2022/04/17 04:32:53;;;;;;;8.13;5.57;;;;;;;7.98;45.30;102927.81;5040606;28;20038;-48
2022/04/17 04:35:19;;;;;;;9.85;6.03;;;;;;;7.82;45.63;102924.91;5044612;28;20041;-49
2022/04/17 04:37:45;;;;;;;9.63;5.70;;;;;;;7.69;46.34;102910.34;5042108;28;20441;-48
2022/04/17 04:40:11;;;;;;;7.65;5.63;;;;;;;7.74;45.90;102926.94;5046869;28;20161;-47
2022/04/17 04:42:36;;;;;;;9.43;5.65;;;;;;;7.78;46.73;102923.81;5043307;28;20029;-50
2022/04/17 04:47:45;;;;;;;11.48;5.63;;;;;;;7.72;46.49;102931.06;5041887;28;20500;-45
2022/04/17 04:50:11;;;;;;;9.27;5.78;;;;;;;7.72;47.36;102925.94;5042381;28;20024;-44
2022/04/17 04:52:38;;;;;;;8.43;5.20;;;;;;;7.75;46.74;102915.91;5046408;28;20033;-44
2022/04/17 04:55:04;;;;;;;6.70;5.05;;;;;;;7.69;47.53;102918.03;5043156;28;20103;-45
2022/04/17 04:57:30;;;;;;;7.88;5.78;;;;;;;7.69;47.08;102911.22;5045652;28;20040;-47
2022/04/17 04:59:55;;;;;;;9.25;5.50;;;;;;;7.73;46.69;102917.47;5042796;28;20048;-48
2022/04/17 05:02:21;;;;;;;8.55;5.35;;;;;;;7.71;47.25;102919.03;5038455;28;20497;-45
2022/04/17 05:04:46;;;;;;;7.68;4.85;;;;;;;7.72;47.05;102920.81;5043813;28;20037;-44
2022/04/17 05:07:11;;;;;;;9.65;5.82;;;;;;;7.71;47.75;102916.50;5045712;28;20040;-44
2022/04/17 05:09:37;;;;;;;8.13;5.60;;;;;;;7.72;46.65;102918.25;5044602;28;20040;-45
2022/04/17 05:12:04;;;;;;;8.40;5.45;;;;;;;7.72;47.00;102915.69;5039799;28;20036;-47
2022/04/17 05:14:29;;;;;;;10.00;5.65;;;;;;;7.68;46.85;102921.38;5043292;28;20043;-47
2022/04/17 05:16:54;;;;;;;10.45;5.57;;;;;;;7.64;46.96;102927.03;5043236;28;20032;-44
2022/04/17 05:19:27;;;;;;;9.80;5.50;;;;;;;7.69;48.20;102929.16;5043732;28;20036;-44
2022/04/17 05:21:57;;;;;;;8.73;5.60;;;;;;;7.63;47.21;102932.94;5043729;28;20036;-47
2022/04/17 05:24:24;;;;;;;8.25;5.40;;;;;;;7.71;48.41;102927.63;5040044;28;20111;-44
2022/04/17 05:26:50;;;;;;;9.52;5.75;;;;;;;7.75;48.29;102936.38;5047425;28;20064;-44
2022/04/17 05:29:15;;;;;;;8.90;5.65;;;;;;;7.80;47.29;102935.06;5042612;28;20035;-45
2022/04/17 05:31:40;;;;;;;8.80;5.57;;;;;;;7.81;47.48;102934.28;5045459;28;20020;-47
2022/04/17 05:34:06;;;;;;;9.32;5.68;;;;;;;7.76;47.61;102925.38;5043108;28;20025;-45
2022/04/17 05:36:31;;;;;;;8.85;5.68;;;;;;;7.78;47.12;102932.41;5047960;28;20536;-44
2022/04/17 05:38:56;;;;;;;8.95;5.53;;;;;;;7.85;47.41;102926.03;5047564;28;20067;-46
2022/04/17 05:41:29;;;;;;;8.45;6.05;;;;;;;7.92;47.05;102923.13;5044507;28;20093;-47
2022/04/17 05:43:57;;;;;;;10.98;5.85;;;;;;;7.94;46.96;102923.25;5045464;28;20649;-45
2022/04/17 05:46:24;;;;;;;9.15;5.85;;;;;;;7.94;47.11;102925.78;5044234;28;20528;-44
2022/04/17 05:48:49;;;;;;;9.43;6.00;;;;;;;8.01;46.59;102917.78;5050100;28;20028;-48
2022/04/17 05:51:15;;;;;;;11.70;5.63;;;;;;;8.09;46.51;102926.91;5045629;28;20033;-44
2022/04/17 05:53:40;;;;;;;7.68;5.22;;;;;;;8.17;46.77;102922.31;5046621;28;20037;-44
2022/04/17 05:56:06;;;;;;;8.75;5.40;;;;;;;8.27;45.95;102928.19;5047277;28;20029;-47
2022/04/17 05:58:31;;;;;;;7.03;5.25;;;;;;;8.34;45.64;102927.84;5047439;28;20463;-50
2022/04/17 06:00:57;;;;;;;8.45;5.00;;;;;;;8.43;45.77;102919.03;5043949;28;20029;-48
2022/04/17 06:03:23;;;;;;;17.50;6.40;;;;;;;8.55;45.47;102925.00;5047521;28;20037;-45
2022/04/17 06:05:48;;;;;;;8.00;4.97;;;;;;;8.62;45.35;102929.81;5047524;28;20053;-44
2022/04/17 06:08:14;;;;;;;6.97;4.82;;;;;;;8.72;44.76;102926.19;5043758;28;20103;-46
2022/04/17 06:10:39;;;;;;;9.43;4.90;;;;;;;8.81;44.76;102926.81;5046945;28;20523;-47
2022/04/17 06:13:05;;;;;;;5.97;4.70;;;;;;;8.89;44.75;102935.03;5046138;28;20029;-45
2022/04/17 06:15:30;;;;;;;7.25;5.25;;;;;;;8.95;44.02;102931.19;5045548;28;20079;-45
2022/04/17 06:17:55;;;;;;;7.03;4.93;;;;;;;9.11;44.17;102925.44;5046460;28;20119;-46
2022/04/17 06:20:21;;;;;;;6.93;4.80;;;;;;;9.12;43.96;102927.19;5044272;28;20025;-45
2022/04/17 06:22:46;;;;;;;8.95;4.72;;;;;;;9.29;44.04;102923.19;5048070;28;20016;-45
2022/04/17 06:25:15;;;;;;;7.43;5.10;;;;;;;9.39;43.73;102928.13;5041468;28;20037;-47
2022/04/17 06:27:43;;;;;;;9.68;5.07;;;;;;;9.48;43.74;102918.47;5045355;28;20083;-47
2022/04/17 06:30:13;;;;;;;6.18;4.60;;;;;;;9.57;43.48;102919.06;5045017;28;20384;-45
2022/04/17 06:32:40;;;;;;;8.18;4.80;;;;;;;9.62;44.01;102912.53;5044656;28;20017;-48
2022/04/17 06:35:07;;;;;;;7.88;4.72;;;;;;;9.77;43.52;102911.72;5042119;28;20107;-49
2022/04/17 06:37:44;;;;;;;8.80;4.97;;;;;;;9.95;43.34;102918.06;5042878;28;20401;-44
2022/04/17 06:40:10;;;;;;;6.05;4.40;;;;;;;10.03;42.87;102921.13;5044581;28;20035;-47
2022/04/17 06:42:36;;;;;;;6.72;4.88;;;;;;;10.16;43.21;102919.41;5045276;28;20108;-46
2022/04/17 06:45:01;;;;;;;6.40;4.60;;;;;;;10.25;43.13;102923.38;5042483;28;20043;-47
2022/04/17 06:47:30;;;;;;;7.20;5.03;;;;;;;10.41;42.69;102918.38;5042777;28;20049;-44
2022/04/17 06:49:55;;;;;;;6.03;4.63;;;;;;;10.52;42.16;102924.19;5044389;28;20024;-45
2022/04/17 06:52:21;;;;;;;7.53;4.35;;;;;;;10.63;42.56;102915.44;5040574;28;20036;-47
2022/04/17 06:54:46;;;;;;;5.35;4.30;;;;;;;10.72;42.23;102913.41;5043707;28;20056;-47
2022/04/17 06:57:12;;;;;;;7.10;4.55;;;;;;;10.92;42.45;102912.94;5045034;28;20094;-44
2022/04/17 06:59:39;;;;;;;7.82;4.78;;;;;;;11.07;42.19;102917.19;5045646;28;20033;-46
2022/04/17 07:02:04;;;;;;;9.25;4.70;;;;;;;11.17;43.11;102910.09;5043413;28;20032;-47
2022/04/17 07:04:29;;;;;;;6.60;4.38;;;;;;;11.35;42.31;102911.97;5043982;28;20052;-48
2022/04/17 07:06:55;;;;;;;6.50;4.35;;;;;;;11.50;41.50;102912.81;5042766;28;20038;-48
2022/04/17 07:09:20;;;;;;;11.82;5.13;;;;;;;11.62;41.41;102916.09;5042491;28;20485;-50
2022/04/17 07:11:45;;;;;;;6.50;4.25;;;;;;;11.83;41.58;102916.47;5045836;28;20060;-45
2022/04/17 07:14:14;;;;;;;5.78;4.35;;;;;;;12.03;41.68;102899.50;5042856;28;20120;-49
2022/04/17 07:16:40;;;;;;;7.40;4.35;;;;;;;12.19;41.21;102896.03;5045356;28;20049;-48
2022/04/17 07:19:06;;;;;;;6.00;3.60;;;;;;;12.38;40.22;102897.91;5043913;28;20033;-45
2022/04/17 07:21:31;;;;;;;6.03;3.97;;;;;;;12.53;39.05;102899.63;5050265;28;20037;-50
2022/04/17 07:23:57;;;;;;;6.15;3.30;;;;;;;12.74;39.36;102896.38;5050184;28;20023;-50
2022/04/17 07:26:23;;;;;;;7.45;3.60;;;;;;;12.89;39.39;102899.75;5045471;28;20025;-47
2022/04/17 07:28:49;;;;;;;5.75;3.58;;;;;;;13.09;38.62;102893.00;5046326;28;20060;-53
2022/04/17 07:31:14;;;;;;;7.82;3.90;;;;;;;13.21;38.56;102888.47;5044504;28;20044;-47
2022/04/17 07:33:39;;;;;;;4.90;3.40;;;;;;;13.27;38.07;102887.88;5044601;28;20033;-48
2022/04/17 07:36:05;;;;;;;4.15;3.03;;;;;;;13.38;37.68;102885.03;5046476;28;20025;-48
2022/04/17 07:38:30;;;;;;;4.88;3.60;;;;;;;13.44;37.45;102881.84;5046447;28;20664;-48
2022/04/17 07:40:55;;;;;;;4.78;3.28;;;;;;;13.57;37.91;102884.22;5040330;28;20040;-46
2022/04/17 07:43:21;;;;;;;5.47;3.05;;;;;;;13.58;36.91;102885.09;5041967;28;20033;-45
2022/04/17 07:45:46;;;;;;;5.10;3.53;;;;;;;13.65;37.45;102885.47;5048936;28;20112;-45
2022/04/17 07:48:12;;;;;;;6.72;3.30;;;;;;;13.79;36.65;102873.19;5047179;28;20464;-49
2022/04/17 07:50:37;;;;;;;4.38;3.30;;;;;;;13.81;36.68;102876.72;5051285;28;20025;-46
2022/04/17 07:53:02;;;;;;;5.25;3.60;;;;;;;13.84;36.66;102874.31;5046264;28;20506;-54
2022/04/17 07:55:28;;;;;;;7.25;3.53;;;;;;;13.97;36.83;102869.69;5045244;28;20048;-47
2022/04/17 08:00:22;;;;;;;5.18;3.42;;;;;;;14.01;35.79;102866.41;5044537;28;20104;-48
2022/04/17 08:03:06;;;;;;;5.82;3.20;;;;;;;14.11;36.08;102868.63;5044313;28;20474;-50
2022/04/17 08:05:35;;;;;;;9.50;3.65;;;;;;;14.26;36.67;102866.72;5045883;28;20028;-46
2022/04/17 08:08:00;;;;;;;6.53;3.25;;;;;;;14.31;35.60;102866.91;5044961;28;20029;-46
2022/04/17 08:10:25;;;;;;;6.05;3.08;;;;;;;14.30;35.73;102866.03;5039794;28;20041;-44
2022/04/17 08:12:51;;;;;;;5.32;3.20;;;;;;;14.46;36.13;102865.03;5043466;28;20124;-45
2022/04/17 08:15:16;;;;;;;5.60;3.13;;;;;;;14.46;35.27;102865.03;5039387;28;20025;-49
2022/04/17 08:17:42;;;;;;;5.22;3.10;;;;;;;14.61;36.20;102862.22;5040572;28;20025;-45
2022/04/17 08:20:08;;;;;;;6.15;3.60;;;;;;;14.73;36.21;102858.47;5045207;28;20028;-45
2022/04/17 08:22:33;;;;;;;4.30;3.20;;;;;;;14.80;35.88;102849.25;5047210;28;20495;-46
2022/04/17 08:24:58;;;;;;;5.93;3.03;;;;;;;14.96;35.15;102853.38;5046015;28;20020;-44
2022/04/17 08:27:24;;;;;;;6.03;3.05;;;;;;;15.11;34.97;102858.34;5044601;28;20064;-48
2022/04/17 08:29:49;;;;;;;7.30;3.20;;;;;;;15.19;35.79;102857.81;5048813;28;20511;-42
2022/04/17 08:32:14;;;;;;;3.78;2.80;;;;;;;15.25;34.38;102857.16;5044444;28;20029;-42
2022/04/17 08:34:40;;;;;;;4.20;3.20;;;;;;;15.36;35.23;102857.63;5039368;28;20114;-47
2022/04/17 08:37:06;;;;;;;7.22;3.00;;;;;;;15.44;34.23;102854.50;5045136;28;20432;-46
2022/04/17 08:39:31;;;;;;;5.60;2.97;;;;;;;15.47;34.07;102854.63;5047927;28;20041;-47
2022/04/17 08:41:58;;;;;;;4.53;2.83;;;;;;;15.57;34.55;102850.66;5047882;28;20055;-44
2022/04/17 08:44:23;;;;;;;4.72;2.80;;;;;;;15.50;33.18;102852.13;5043684;28;20067;-44
2022/04/17 08:46:49;;;;;;;3.10;2.67;;;;;;;15.68;33.79;102846.81;5040641;28;20052;-43
2022/04/17 08:49:14;;;;;;;5.25;2.72;;;;;;;15.68;33.72;102845.94;5046130;28;20478;-45
2022/04/17 08:51:42;;;;;;;4.68;2.63;;;;;;;15.85;33.62;102850.06;5043881;28;20112;-44
2022/04/17 08:54:08;;;;;;;4.10;2.70;;;;;;;15.92;33.66;102846.88;5046739;28;20041;-44
2022/04/17 08:56:36;;;;;;;5.47;3.20;;;;;;;15.98;33.35;102848.81;5042002;28;20032;-46
2022/04/17 08:59:02;;;;;;;6.18;2.75;;;;;;;16.04;32.77;102842.13;5040967;28;20486;-47
2022/04/17 09:01:28;;;;;;;4.22;2.50;;;;;;;16.11;32.75;102840.66;5041075;28;20035;-44
2022/04/17 09:03:53;;;;;;;5.20;2.72;;;;;;;15.94;31.28;102845.22;5044508;28;20543;-45
2022/04/17 09:06:20;;;;;;;4.18;2.50;;;;;;;15.97;31.06;102841.88;5041429;28;20060;-48
2022/04/17 09:09:03;;;;;;;5.47;2.60;;;;;;;16.14;32.26;102827.81;5045802;28;20025;-45
2022/04/17 09:11:29;;;;;;;3.60;2.60;;;;;;;16.14;31.17;102839.88;5048157;28;20031;-45
2022/04/17 09:13:59;;;;;;;4.18;2.60;;;;;;;16.25;31.70;102821.25;5043530;28;20030;-43
2022/04/17 09:16:34;;;;;;;4.10;2.55;;;;;;;16.39;32.85;102832.16;5044100;28;20017;-44
2022/04/17 09:19:20;;;;;;;5.25;3.03;;;;;;;16.54;32.68;102830.09;5041140;28;20052;-45
2022/04/17 09:21:45;;;;;;;4.13;2.60;;;;;;;16.55;31.24;102834.44;5044929;28;20429;-42
2022/04/17 09:24:26;;;;;;;4.55;2.67;;;;;;;16.66;31.42;102826.16;5047445;28;20147;-44
2022/04/17 09:26:54;;;;;;;4.15;2.75;;;;;;;16.64;30.65;102823.50;5049374;28;20094;-43
2022/04/17 09:29:30;;;;;;;6.55;3.00;;;;;;;16.71;32.04;102812.53;5047751;28;20024;-44
2022/04/17 09:32:00;;;;;;;3.58;2.70;;;;;;;16.82;31.28;102815.50;5048579;28;20090;-43
2022/04/17 09:34:28;;;;;;;3.78;2.47;;;;;;;16.85;30.51;102811.25;5049331;28;20039;-44
2022/04/17 09:36:58;;;;;;;4.88;2.65;;;;;;;16.90;30.92;102808.81;5047077;28;20064;-48
2022/04/17 09:39:30;;;;;;;4.47;2.75;;;;;;;16.79;30.38;102810.16;5049143;28;20025;-46
2022/04/17 09:42:02;;;;;;;4.65;2.90;;;;;;;16.86;30.80;102806.94;5047826;28;20086;-43
2022/04/17 09:44:47;;;;;;;3.78;2.38;;;;;;;16.97;32.01;102797.78;5048057;28;20753;-46
2022/04/17 09:47:26;;;;;;;4.03;2.53;;;;;;;17.06;32.11;102797.22;5048236;28;20021;-42
2022/04/17 09:49:52;;;;;;;4.95;2.40;;;;;;;17.08;31.45;102796.41;5048831;28;20047;-47
2022/04/17 09:52:19;;;;;;;5.68;2.65;;;;;;;17.03;30.04;102785.00;5048909;28;20111;-43
2022/04/17 09:54:45;;;;;;;5.70;2.70;;;;;;;17.11;30.14;102786.13;5047151;28;20045;-43
2022/04/17 09:57:12;;;;;;;6.25;2.90;;;;;;;17.07;30.37;102781.66;5048331;28;20075;-45
2022/04/17 09:59:37;;;;;;;4.90;2.70;;;;;;;17.16;30.65;102770.66;5045660;28;20424;-48
2022/04/17 10:02:05;;;;;;;4.22;2.55;;;;;;;17.26;30.75;102772.72;5050186;28;20036;-44
2022/04/17 10:04:30;;;;;;;5.13;2.65;;;;;;;17.35;30.70;102767.81;5046387;28;20033;-44
2022/04/17 10:07:02;;;;;;;3.40;2.20;;;;;;;17.40;29.76;102765.34;5045920;28;20940;-43
2022/04/17 10:09:27;;;;;;;5.45;2.63;;;;;;;17.40;29.24;102755.81;5038871;28;21550;-47
2022/04/17 10:11:56;;;;;;;6.07;2.40;;;;;;;17.55;30.73;102747.59;5031370;28;20044;-44
2022/04/17 10:14:22;;;;;;;4.22;2.70;;;;;;;17.55;29.57;102747.59;5029251;28;20680;-43
2022/04/17 10:16:50;;;;;;;4.32;2.50;;;;;;;17.69;29.68;102754.06;5039225;28;20120;-44
2022/04/17 10:19:17;;;;;;;3.55;2.83;;;;;;;17.64;28.79;102745.25;5041533;28;20495;-44
2022/04/17 10:21:46;;;;;;;5.05;2.63;;;;;;;17.79;29.50;102741.38;5042841;28;20055;-43
2022/04/17 10:24:19;;;;;;;3.57;2.47;;;;;;;17.90;29.48;102738.22;5044041;28;20055;-44
2022/04/17 10:26:50;;;;;;;4.38;2.47;;;;;;;18.01;29.92;102728.09;5044693;28;20294;-45
2022/04/17 10:29:25;;;;;;;4.00;2.55;;;;;;;18.06;30.57;102723.00;5037067;28;20120;-47
2022/04/17 10:32:44;;;;;;;3.95;2.33;;;;;;;18.30;30.22;102722.78;5039844;28;20304;-45
2022/04/17 10:35:28;;;;;;;3.53;2.22;;;;;;;18.46;30.46;102710.19;5036498;28;20151;-44
2022/04/17 10:38:12;;;;;;;4.32;2.60;;;;;;;18.55;28.55;102706.91;5038924;28;20045;-45
2022/04/17 10:40:38;;;;;;;5.50;2.60;;;;;;;18.54;28.63;102702.56;5039901;28;20068;-46
2022/04/17 10:43:05;;;;;;;3.08;2.50;;;;;;;18.62;28.58;102700.13;5042561;28;20020;-43
2022/04/17 10:45:31;;;;;;;6.20;2.60;;;;;;;18.81;28.42;102697.16;5042624;28;20063;-44
2022/04/17 10:48:03;;;;;;;3.45;2.40;;;;;;;18.91;27.70;102693.91;5045291;28;20037;-46
2022/04/17 10:50:50;;;;;;;5.47;2.70;;;;;;;19.12;28.33;102695.25;5045390;28;20029;-44
2022/04/17 10:53:25;;;;;;;4.60;2.65;;;;;;;19.29;27.75;102686.03;5043409;28;20080;-45
2022/04/17 10:56:06;;;;;;;7.07;2.60;;;;;;;19.52;27.32;102691.72;5042736;28;20029;-47
2022/04/17 10:58:44;;;;;;;4.40;2.70;;;;;;;19.66;27.34;102681.63;5048390;28;20044;-44
2022/04/17 11:01:10;;;;;;;4.35;2.55;;;;;;;19.63;26.58;102682.44;5044924;28;20469;-43
2022/04/17 11:03:36;;;;;;;4.47;2.50;;;;;;;19.87;26.32;102668.97;5043789;28;20021;-43
2022/04/17 11:06:30;;;;;;;3.88;2.50;;;;;;;20.06;26.23;102678.88;5045281;28;20469;-47
2022/04/17 11:09:03;;;;;;;4.82;2.63;;;;;;;20.12;24.44;102665.06;5041463;28;20445;-47
2022/04/17 11:12:04;;;;;;;2.78;2.17;;;;;;;20.17;24.61;102655.56;5044471;28;20951;-43
2022/04/17 11:14:30;;;;;;;4.00;2.30;;;;;;;20.36;24.89;102660.22;5045069;28;20036;-44
2022/04/17 11:16:58;;;;;;;4.72;2.55;;;;;;;20.40;24.48;102657.69;5036226;28;20111;-46
2022/04/17 11:19:26;;;;;;;4.35;2.80;;;;;;;20.15;24.03;102656.41;5042750;28;20098;-45
2022/04/17 11:21:53;;;;;;;3.22;2.42;;;;;;;20.06;23.05;102649.28;5042228;28;20420;-44
2022/04/17 11:24:20;;;;;;;4.25;2.67;;;;;;;20.05;24.46;102645.78;5041962;28;20033;-44
2022/04/17 11:26:54;;;;;;;5.68;3.35;;;;;;;20.45;24.67;102650.81;5038665;28;20501;-45
2022/04/17 11:30:01;;;;;;;3.95;2.40;;;;;;;20.75;23.66;102639.94;5045854;28;20761;-44
2022/04/17 11:32:30;;;;;;;4.32;2.63;;;;;;;20.95;23.50;102637.63;5044617;28;20055;-44
2022/04/17 11:34:57;;;;;;;2.92;2.60;;;;;;;21.13;22.47;102632.63;5043101;28;20443;-46
2022/04/17 11:37:29;;;;;;;3.17;2.10;;;;;;;21.39;22.15;102628.59;5046024;28;20025;-44
2022/04/17 11:39:57;;;;;;;4.13;2.22;;;;;;;21.33;20.69;102612.81;5044258;28;20566;-45
2022/04/17 11:42:26;;;;;;;3.53;2.08;;;;;;;21.52;20.55;102624.38;5043642;28;20037;-45
2022/04/17 11:44:51;;;;;;;6.90;2.10;;;;;;;21.75;20.58;102608.91;5048137;28;20547;-44
2022/04/17 11:47:21;;;;;;;4.13;2.30;;;;;;;21.86;20.18;102606.38;5047344;28;20068;-49